PWSweather.com
Personal Weather Stations
Station Observations
KCAOCEAN4
Jeffries Ranch, Oceanside, CA 92057

Jeffries RanchOceanside, CA 92057

Lat: 33.2463208, Lon: -117.25335080000002

Elevation: 207

Station Type: Davis Vantage Vue

jeffriesranchweather.com

High Low Average
Temperature 61.5°F16.4°C 52.5°F11.4°C 56.5°F13.6°C
Dew Point 60.6°F15.9°C 50.9°F10.5°C 54.5°F12.5°C
Winds 14.1 mph 22.7 kmh Calm Calm 4.0 mph S6.4 kmh S
Wind Gusts 38.0 mph61.2 kmh -- 9.0 mph14.5 kmh
Humidity 98% 77% 93%
Pressure 29.87 in1011.5 mb 29.64 in1003.7 mb -
Precipitation 2.97 in75.4 mm - -
Hour Temp Dew Point Humidity Winds Wind Gusts Pressure Precip Precip Rate Daily Precip Total
12:01 AM 59.5°F15.3°C 57.2°F14.0°C 92% 0.9 mph ENE1.4 kmh ENE 4.9 mph7.9 kmh 29.83 in1010.2 mb 0.13 in3.3 mm 7.80 in198.1 mm 0.24 in6.1 mm
12:11 AM 59.4°F15.2°C 57.4°F14.1°C 93% Calm Calm 2.0 mph3.2 kmh 29.83 in1010.2 mb 0.17 in4.3 mm 0.24 in6.1 mm 0.27 in6.9 mm
12:21 AM 59.2°F15.1°C 57.2°F14.0°C 93% 2.9 mph NE4.7 kmh NE 5.0 mph8.0 kmh 29.81 in1009.5 mb 0.20 in5.1 mm 0.18 in4.6 mm 0.31 in7.9 mm
12:31 AM 58.8°F14.9°C 57.0°F13.9°C 94% 4.9 mph E7.9 kmh E 8.9 mph14.3 kmh 29.80 in1009.1 mb 0.21 in5.3 mm 0.06 in1.5 mm 0.32 in8.1 mm
12:41 AM 58.8°F14.9°C 57.0°F13.9°C 94% 4.9 mph E7.9 kmh E 8.9 mph14.3 kmh 29.80 in1009.1 mb 0.21 in5.3 mm 0.00 in0.0 mm 0.32 in8.1 mm
12:51 AM 59.2°F15.1°C 57.4°F14.1°C 94% 4.0 mph ENE6.4 kmh ENE 8.1 mph13.0 kmh 29.80 in1009.1 mb 0.17 in4.3 mm 0.00 in0.0 mm 0.33 in8.4 mm
01:01 AM 59.4°F15.2°C 57.4°F14.1°C 93% 4.9 mph E7.9 kmh E 10.1 mph16.3 kmh 29.79 in1008.8 mb 0.12 in3.0 mm 0.00 in0.0 mm 0.21 in5.3 mm
01:11 AM 59.4°F15.2°C 57.4°F14.1°C 93% 4.9 mph E7.9 kmh E 8.9 mph14.3 kmh 29.79 in1008.8 mb 0.11 in2.8 mm 0.00 in0.0 mm 0.03 in0.8 mm
01:21 AM 59.4°F15.2°C 57.4°F14.1°C 93% 2.0 mph NE3.2 kmh NE 4.9 mph7.9 kmh 29.79 in1008.8 mb 0.12 in3.0 mm 0.06 in1.5 mm 0.07 in1.8 mm
01:31 AM 59.2°F15.1°C 57.4°F14.1°C 94% 0.9 mph E1.4 kmh E 2.0 mph3.2 kmh 29.79 in1008.8 mb 0.15 in3.8 mm 0.18 in4.6 mm 0.12 in3.0 mm
01:41 AM 58.8°F14.9°C 57.0°F13.9°C 94% 4.0 mph E6.4 kmh E 7.0 mph11.3 kmh 29.77 in1008.1 mb 0.21 in5.3 mm 0.36 in9.1 mm 0.18 in4.6 mm
01:51 AM 58.8°F14.9°C 57.0°F13.9°C 94% 2.9 mph ENE4.7 kmh ENE 6.0 mph9.7 kmh 29.78 in1008.5 mb 0.21 in5.3 mm 0.00 in0.0 mm 0.19 in4.8 mm
02:01 AM 58.6°F14.8°C 56.8°F13.8°C 94% 2.0 mph ENE3.2 kmh ENE 6.0 mph9.7 kmh 29.76 in1007.8 mb 0.21 in5.3 mm 0.00 in0.0 mm 0.22 in5.6 mm
02:11 AM 58.6°F14.8°C 57.2°F14.0°C 95% 2.0 mph NNE3.2 kmh NNE 6.0 mph9.7 kmh 29.76 in1007.8 mb 0.21 in5.3 mm 0.00 in0.0 mm 0.24 in6.1 mm
02:21 AM 58.5°F14.7°C 57.0°F13.9°C 95% 0.9 mph ENE1.4 kmh ENE 2.9 mph4.7 kmh 29.78 in1008.5 mb 0.19 in4.8 mm 0.00 in0.0 mm 0.27 in6.9 mm
02:31 AM 58.5°F14.7°C 57.0°F13.9°C 95% 2.0 mph E3.2 kmh E 6.0 mph9.7 kmh 29.76 in1007.8 mb 0.20 in5.1 mm 0.06 in1.5 mm 0.32 in8.1 mm
02:41 AM 58.5°F14.7°C 57.0°F13.9°C 95% 2.9 mph ENE4.7 kmh ENE 7.0 mph11.3 kmh 29.75 in1007.5 mb 0.19 in4.8 mm 0.00 in0.0 mm 0.37 in9.4 mm
02:51 AM 58.5°F14.7°C 57.0°F13.9°C 95% 0.9 mph NE1.4 kmh NE 4.0 mph6.4 kmh 29.74 in1007.1 mb 0.21 in5.3 mm 0.12 in3.0 mm 0.40 in10.2 mm
03:01 AM 58.3°F14.6°C 57.2°F14.0°C 96% Calm Calm 2.0 mph3.2 kmh 29.75 in1007.5 mb 0.21 in5.3 mm 0.00 in0.0 mm 0.42 in10.7 mm
03:11 AM 58.3°F14.6°C 57.2°F14.0°C 96% 2.0 mph E3.2 kmh E 6.0 mph9.7 kmh 29.73 in1006.8 mb 0.25 in6.4 mm 0.24 in6.1 mm 0.50 in12.7 mm
03:21 AM 58.1°F14.5°C 57.0°F13.9°C 96% 4.0 mph NE6.4 kmh NE 7.0 mph11.3 kmh 29.72 in1006.4 mb 0.28 in7.1 mm 0.18 in4.6 mm 0.54 in13.7 mm
03:31 AM 57.9°F14.4°C 56.8°F13.8°C 96% 2.0 mph E3.2 kmh E 4.9 mph7.9 kmh 29.71 in1006.1 mb 0.24 in6.1 mm 0.00 in0.0 mm 0.56 in14.2 mm
03:41 AM 57.9°F14.4°C 56.8°F13.8°C 96% 2.0 mph ENE3.2 kmh ENE 6.0 mph9.7 kmh 29.69 in1005.4 mb 0.20 in5.1 mm 0.00 in0.0 mm 0.57 in14.5 mm
03:51 AM 57.9°F14.4°C 56.8°F13.8°C 96% 2.0 mph NE3.2 kmh NE 4.0 mph6.4 kmh 29.69 in1005.4 mb 0.19 in4.8 mm 0.00 in0.0 mm 0.59 in15.0 mm
04:01 AM 57.9°F14.4°C 56.8°F13.8°C 96% 2.9 mph ENE4.7 kmh ENE 6.0 mph9.7 kmh 29.68 in1005.1 mb 0.18 in4.6 mm 0.00 in0.0 mm 0.60 in15.2 mm
04:11 AM 57.9°F14.4°C 56.8°F13.8°C 96% 2.9 mph NE4.7 kmh NE 6.9 mph11.1 kmh 29.67 in1004.7 mb 0.12 in3.0 mm 0.00 in0.0 mm 0.62 in15.7 mm
04:21 AM 57.7°F14.3°C 56.7°F13.7°C 96% 2.0 mph NNE3.2 kmh NNE 4.9 mph7.9 kmh 29.68 in1005.1 mb 0.09 in2.3 mm 0.00 in0.0 mm 0.64 in16.3 mm
04:31 AM 57.7°F14.3°C 56.7°F13.7°C 96% 0.9 mph N1.4 kmh N 2.9 mph4.7 kmh 29.67 in1004.7 mb 0.22 in5.6 mm 0.78 in19.8 mm 0.80 in20.3 mm
04:41 AM 57.7°F14.3°C 56.8°F13.8°C 97% 0.9 mph NNE1.4 kmh NNE 2.0 mph3.2 kmh 29.67 in1004.7 mb 0.32 in8.1 mm 0.60 in15.2 mm 0.89 in22.6 mm
04:51 AM 57.7°F14.3°C 56.8°F13.8°C 97% Calm Calm 4.0 mph6.4 kmh 29.67 in1004.7 mb 0.43 in10.9 mm 0.66 in16.8 mm 1.02 in25.9 mm
05:01 AM 57.7°F14.3°C 56.8°F13.8°C 97% 2.0 mph N3.2 kmh N 5.0 mph8.0 kmh 29.66 in1004.4 mb 0.49 in12.4 mm 0.07 in1.8 mm 1.10 in27.9 mm
05:11 AM 57.7°F14.3°C 56.8°F13.8°C 97% Calm Calm 4.0 mph6.4 kmh 29.65 in1004.1 mb 0.58 in14.7 mm 0.54 in13.7 mm 1.20 in30.5 mm
05:21 AM 57.7°F14.3°C 56.8°F13.8°C 97% 0.9 mph NNW1.4 kmh NNW 2.0 mph3.2 kmh 29.66 in1004.4 mb 0.61 in15.5 mm 0.18 in4.6 mm 1.24 in31.5 mm
05:31 AM 57.7°F14.3°C 56.8°F13.8°C 97% Calm Calm 3.0 mph4.8 kmh 29.66 in1004.4 mb 0.56 in14.2 mm 0.00 in0.0 mm 1.34 in34.0 mm
05:41 AM 57.7°F14.3°C 56.8°F13.8°C 97% 0.9 mph E1.4 kmh E 4.0 mph6.4 kmh 29.66 in1004.4 mb 0.49 in12.4 mm 0.00 in0.0 mm 1.39 in35.3 mm
05:51 AM 57.7°F14.3°C 56.8°F13.8°C 97% 0.9 mph E1.4 kmh E 4.0 mph6.4 kmh 29.66 in1004.4 mb 0.41 in10.4 mm 0.00 in0.0 mm 1.44 in36.6 mm
06:01 AM 57.7°F14.3°C 56.8°F13.8°C 97% 4.0 mph NE6.4 kmh NE 7.0 mph11.3 kmh 29.65 in1004.1 mb 0.42 in10.7 mm 0.01 in0.3 mm 1.52 in38.6 mm
06:11 AM 57.7°F14.3°C 56.8°F13.8°C 97% 2.9 mph ENE4.7 kmh ENE 6.0 mph9.7 kmh 29.65 in1004.1 mb 0.39 in9.9 mm 0.00 in0.0 mm 1.59 in40.4 mm
06:21 AM 57.7°F14.3°C 56.8°F13.8°C 97% 2.9 mph NE4.7 kmh NE 6.0 mph9.7 kmh 29.64 in1003.7 mb 0.41 in10.4 mm 0.12 in3.0 mm 1.66 in42.2 mm
06:31 AM 57.7°F14.3°C 56.8°F13.8°C 97% 0.9 mph NE1.4 kmh NE 4.0 mph6.4 kmh 29.64 in1003.7 mb 0.35 in8.9 mm 0.00 in0.0 mm 1.70 in43.2 mm
06:41 AM 57.9°F14.4°C 57.0°F13.9°C 97% Calm Calm 0.9 mph1.4 kmh 29.64 in1003.7 mb 0.35 in8.9 mm 0.00 in0.0 mm 1.74 in44.2 mm
06:51 AM 59.7°F15.4°C 59.2°F15.1°C 98% 2.9 mph SE4.7 kmh SE 18.0 mph29.0 kmh 29.64 in1003.7 mb 0.32 in8.1 mm 0.00 in0.0 mm 1.75 in44.5 mm
07:01 AM 60.6°F15.9°C 60.1°F15.6°C 98% 8.1 mph S13.0 kmh S 19.9 mph32.0 kmh 29.64 in1003.7 mb 0.25 in6.4 mm 0.00 in0.0 mm 1.76 in44.7 mm
07:11 AM 61.0°F16.1°C 60.1°F15.6°C 97% 8.1 mph SW13.0 kmh SW 19.0 mph30.6 kmh 29.66 in1004.4 mb 0.20 in5.1 mm 0.00 in0.0 mm 1.78 in45.2 mm
07:21 AM 60.6°F15.9°C 59.5°F15.3°C 96% 6.9 mph SW11.1 kmh SW 16.1 mph25.9 kmh 29.66 in1004.4 mb 0.20 in5.1 mm 0.00 in0.0 mm 1.85 in47.0 mm
07:31 AM 61.5°F16.4°C 60.6°F15.9°C 97% 8.1 mph SSW13.0 kmh SSW 19.9 mph32.0 kmh 29.67 in1004.7 mb 0.18 in4.6 mm 0.00 in0.0 mm 1.87 in47.5 mm
07:41 AM 58.3°F14.6°C 55.6°F13.1°C 91% 14.1 mph WSW22.7 kmh WSW 38.0 mph61.2 kmh 29.70 in1005.8 mb 0.22 in5.6 mm 0.24 in6.1 mm 1.95 in49.5 mm
07:51 AM 55.8°F13.2°C 54.7°F12.6°C 96% 14.1 mph WSW22.7 kmh WSW 30.0 mph48.3 kmh 29.72 in1006.4 mb 0.21 in5.3 mm 0.00 in0.0 mm 1.96 in49.8 mm
08:01 AM 55.4°F13.0°C 54.3°F12.4°C 96% 10.1 mph NW16.3 kmh NW 22.0 mph35.4 kmh 29.73 in1006.8 mb 0.20 in5.1 mm 0.00 in0.0 mm 1.96 in49.8 mm
08:11 AM 55.0°F12.8°C 53.6°F12.0°C 95% 13.0 mph WNW20.9 kmh WNW 23.9 mph38.5 kmh 29.74 in1007.1 mb 0.18 in4.6 mm 0.00 in0.0 mm 1.96 in49.8 mm
08:21 AM 55.0°F12.8°C 53.6°F12.0°C 95% 8.1 mph W13.0 kmh W 16.1 mph25.9 kmh 29.75 in1007.5 mb 0.13 in3.3 mm 0.00 in0.0 mm 1.98 in50.3 mm
08:31 AM 55.0°F12.8°C 54.0°F12.2°C 96% 6.0 mph WNW9.7 kmh WNW 15.0 mph24.1 kmh 29.75 in1007.5 mb 0.14 in3.6 mm 0.06 in1.5 mm 2.01 in51.1 mm
08:41 AM 54.9°F12.7°C 53.8°F12.1°C 96% 4.0 mph WSW6.4 kmh WSW 12.1 mph19.5 kmh 29.76 in1007.8 mb 0.07 in1.8 mm 0.00 in0.0 mm 2.03 in51.6 mm
08:51 AM 54.9°F12.7°C 53.8°F12.1°C 96% 0.9 mph SSW1.4 kmh SSW 4.0 mph6.4 kmh 29.77 in1008.1 mb 0.09 in2.3 mm 0.12 in3.0 mm 2.05 in52.1 mm
09:02 AM 54.9°F12.7°C 54.0°F12.2°C 97% 2.0 mph W3.2 kmh W 9.0 mph14.5 kmh 29.78 in1008.5 mb 0.12 in3.0 mm 0.04 in1.0 mm 2.09 in53.1 mm
09:12 AM 54.9°F12.7°C 54.0°F12.2°C 97% 2.0 mph SE3.2 kmh SE 4.9 mph7.9 kmh 29.78 in1008.5 mb 0.16 in4.1 mm 0.24 in6.1 mm 2.12 in53.8 mm
09:22 AM 55.0°F12.8°C 54.1°F12.3°C 97% 2.0 mph SSE3.2 kmh SSE 4.0 mph6.4 kmh 29.79 in1008.8 mb 0.16 in4.1 mm 0.00 in0.0 mm 2.14 in54.4 mm
09:32 AM 55.0°F12.8°C 54.1°F12.3°C 97% 0.9 mph SSE1.4 kmh SSE 2.9 mph4.7 kmh 29.79 in1008.8 mb 0.14 in3.6 mm 0.00 in0.0 mm 2.15 in54.6 mm
09:42 AM 55.0°F12.8°C 54.1°F12.3°C 97% 0.9 mph SSE1.4 kmh SSE 2.9 mph4.7 kmh 29.79 in1008.8 mb 0.14 in3.6 mm 0.00 in0.0 mm 2.16 in54.9 mm
09:52 AM 55.2°F12.9°C 54.3°F12.4°C 97% 2.0 mph S3.2 kmh S 6.0 mph9.7 kmh 29.80 in1009.1 mb 0.12 in3.0 mm 0.00 in0.0 mm 2.17 in55.1 mm
10:02 AM 55.2°F12.9°C 54.3°F12.4°C 97% 0.9 mph SE1.4 kmh SE 4.0 mph6.4 kmh 29.78 in1008.5 mb 0.11 in2.8 mm 0.00 in0.0 mm 2.19 in55.6 mm
10:12 AM 55.2°F12.9°C 54.3°F12.4°C 97% 2.9 mph S4.7 kmh S 9.0 mph14.5 kmh 29.82 in1009.8 mb 0.07 in1.8 mm 0.00 in0.0 mm 2.19 in55.6 mm
10:22 AM 55.6°F13.1°C 54.7°F12.6°C 97% 4.0 mph S6.4 kmh S 8.9 mph14.3 kmh 29.82 in1009.8 mb 0.06 in1.5 mm 0.00 in0.0 mm 2.20 in55.9 mm
10:32 AM 55.6°F13.1°C 54.7°F12.6°C 97% 2.0 mph SE3.2 kmh SE 4.9 mph7.9 kmh 29.81 in1009.5 mb 0.06 in1.5 mm 0.00 in0.0 mm 2.21 in56.1 mm
10:42 AM 55.6°F13.1°C 54.7°F12.6°C 97% 0.9 mph SE1.4 kmh SE 4.0 mph6.4 kmh 29.82 in1009.8 mb 0.05 in1.3 mm 0.00 in0.0 mm 2.21 in56.1 mm
10:52 AM 55.9°F13.3°C 55.0°F12.8°C 97% 2.0 mph S3.2 kmh S 4.0 mph6.4 kmh 29.82 in1009.8 mb 0.05 in1.3 mm 0.00 in0.0 mm 2.22 in56.4 mm
11:02 AM 55.9°F13.3°C 55.0°F12.8°C 97% 2.9 mph SE4.7 kmh SE 6.9 mph11.1 kmh 29.82 in1009.8 mb 0.05 in1.3 mm 0.00 in0.0 mm 2.24 in56.9 mm
11:12 AM 56.1°F13.4°C 55.2°F12.9°C 97% 4.0 mph SE6.4 kmh SE 8.1 mph13.0 kmh 29.82 in1009.8 mb 0.05 in1.3 mm 0.00 in0.0 mm 2.24 in56.9 mm
11:22 AM 56.1°F13.4°C 55.2°F12.9°C 97% 4.0 mph SSW6.4 kmh SSW 9.0 mph14.5 kmh 29.81 in1009.5 mb 0.04 in1.0 mm 0.00 in0.0 mm 2.24 in56.9 mm
11:32 AM 56.7°F13.7°C 55.8°F13.2°C 97% 2.9 mph WSW4.7 kmh WSW 6.9 mph11.1 kmh 29.82 in1009.8 mb 0.03 in0.8 mm 0.00 in0.0 mm 2.24 in56.9 mm
11:42 AM 57.0°F13.9°C 56.1°F13.4°C 97% 2.0 mph WNW3.2 kmh WNW 7.0 mph11.3 kmh 29.82 in1009.8 mb 0.03 in0.8 mm 0.00 in0.0 mm 2.24 in56.9 mm
11:52 AM 57.0°F13.9°C 55.9°F13.3°C 96% 4.0 mph SSW6.4 kmh SSW 8.9 mph14.3 kmh 29.81 in1009.5 mb 0.02 in0.5 mm 0.00 in0.0 mm 2.24 in56.9 mm
12:02 PM 57.4°F14.1°C 56.3°F13.5°C 96% 2.9 mph SW4.7 kmh SW 10.1 mph16.3 kmh 29.81 in1009.5 mb 0.00 in0.0 mm 0.00 in0.0 mm 2.24 in56.9 mm
12:12 PM 57.9°F14.4°C 56.5°F13.6°C 95% 4.0 mph SW6.4 kmh SW 12.1 mph19.5 kmh 29.81 in1009.5 mb 0.00 in0.0 mm 0.00 in0.0 mm 2.24 in56.9 mm
12:22 PM 58.3°F14.6°C 56.3°F13.5°C 93% 2.9 mph SW4.7 kmh SW 8.9 mph14.3 kmh 29.80 in1009.1 mb 0.00 in0.0 mm 0.00 in0.0 mm 2.24 in56.9 mm
12:32 PM 57.4°F14.1°C 54.5°F12.5°C 90% 4.0 mph SW6.4 kmh SW 10.1 mph16.3 kmh 29.80 in1009.1 mb 0.00 in0.0 mm 0.00 in0.0 mm 2.24 in56.9 mm
12:42 PM 57.7°F14.3°C 54.0°F12.2°C 87% 4.9 mph SW7.9 kmh SW 12.1 mph19.5 kmh 29.80 in1009.1 mb 0.00 in0.0 mm 0.00 in0.0 mm 2.24 in56.9 mm
12:52 PM 58.5°F14.7°C 54.3°F12.4°C 86% 4.0 mph SE6.4 kmh SE 13.0 mph20.9 kmh 29.80 in1009.1 mb 0.00 in0.0 mm 0.00 in0.0 mm 2.24 in56.9 mm
01:02 PM 59.0°F15.0°C 53.8°F12.1°C 83% 4.9 mph S7.9 kmh S 11.0 mph17.7 kmh 29.80 in1009.1 mb 0.00 in0.0 mm 0.00 in0.0 mm 2.24 in56.9 mm
01:12 PM 59.2°F15.1°C 54.3°F12.4°C 84% 4.0 mph SW6.4 kmh SW 11.0 mph17.7 kmh 29.80 in1009.1 mb 0.00 in0.0 mm 0.00 in0.0 mm 2.24 in56.9 mm
01:22 PM 59.4°F15.2°C 53.8°F12.1°C 82% 4.9 mph W7.9 kmh W 16.1 mph25.9 kmh 29.80 in1009.1 mb 0.00 in0.0 mm 0.00 in0.0 mm 2.24 in56.9 mm
01:32 PM 58.3°F14.6°C 54.5°F12.5°C 87% 4.0 mph S6.4 kmh S 8.1 mph13.0 kmh 29.79 in1008.8 mb 0.03 in0.8 mm 0.18 in4.6 mm 2.27 in57.7 mm
01:42 PM 59.0°F15.0°C 54.9°F12.7°C 86% 4.9 mph SSE7.9 kmh SSE 11.0 mph17.7 kmh 29.79 in1008.8 mb 0.03 in0.8 mm 0.00 in0.0 mm 2.27 in57.7 mm
01:52 PM 59.5°F15.3°C 54.3°F12.4°C 83% 6.0 mph SSW9.7 kmh SSW 16.1 mph25.9 kmh 29.78 in1008.5 mb 0.03 in0.8 mm 0.00 in0.0 mm 2.27 in57.7 mm
02:02 PM 58.5°F14.7°C 54.3°F12.4°C 86% 6.9 mph WSW11.1 kmh WSW 21.0 mph33.8 kmh 29.78 in1008.5 mb 0.09 in2.3 mm 0.07 in1.8 mm 2.33 in59.2 mm
02:12 PM 59.5°F15.3°C 55.0°F12.8°C 85% 6.0 mph W9.7 kmh W 17.0 mph27.4 kmh 29.78 in1008.5 mb 0.09 in2.3 mm 0.00 in0.0 mm 2.33 in59.2 mm
02:22 PM 60.3°F15.7°C 55.0°F12.8°C 83% 6.0 mph SW9.7 kmh SW 12.1 mph19.5 kmh 29.78 in1008.5 mb 0.09 in2.3 mm 0.00 in0.0 mm 2.33 in59.2 mm
02:32 PM 60.6°F15.9°C 54.5°F12.5°C 80% 6.9 mph SSW11.1 kmh SSW 15.0 mph24.1 kmh 29.77 in1008.1 mb 0.06 in1.5 mm 0.00 in0.0 mm 2.33 in59.2 mm
02:42 PM 61.3°F16.3°C 54.1°F12.3°C 77% 6.0 mph WSW9.7 kmh WSW 14.1 mph22.7 kmh 29.77 in1008.1 mb 0.06 in1.5 mm 0.00 in0.0 mm 2.33 in59.2 mm
02:52 PM 60.6°F15.9°C 53.4°F11.9°C 77% 8.1 mph SW13.0 kmh SW 21.0 mph33.8 kmh 29.77 in1008.1 mb 0.06 in1.5 mm 0.00 in0.0 mm 2.33 in59.2 mm
03:02 PM 60.1°F15.6°C 54.0°F12.2°C 80% 8.1 mph SSE13.0 kmh SSE 16.1 mph25.9 kmh 29.77 in1008.1 mb 0.00 in0.0 mm 0.00 in0.0 mm 2.33 in59.2 mm
03:12 PM 59.4°F15.2°C 54.1°F12.3°C 83% 6.9 mph S11.1 kmh S 14.1 mph22.7 kmh 29.76 in1007.8 mb 0.00 in0.0 mm 0.00 in0.0 mm 2.33 in59.2 mm
03:22 PM 59.2°F15.1°C 53.1°F11.7°C 80% 6.9 mph SSW11.1 kmh SSW 19.0 mph30.6 kmh 29.75 in1007.5 mb 0.00 in0.0 mm 0.00 in0.0 mm 2.33 in59.2 mm
03:32 PM 58.3°F14.6°C 53.1°F11.7°C 83% 8.1 mph SSE13.0 kmh SSE 19.0 mph30.6 kmh 29.75 in1007.5 mb 0.01 in0.3 mm 0.06 in1.5 mm 2.34 in59.4 mm
03:42 PM 57.2°F14.0°C 53.6°F12.0°C 88% 6.9 mph SW11.1 kmh SW 18.0 mph29.0 kmh 29.75 in1007.5 mb 0.02 in0.5 mm 0.06 in1.5 mm 2.35 in59.7 mm
03:52 PM 56.8°F13.8°C 54.0°F12.2°C 90% 4.9 mph SSE7.9 kmh SSE 11.0 mph17.7 kmh 29.75 in1007.5 mb 0.03 in0.8 mm 0.06 in1.5 mm 2.37 in60.2 mm
04:02 PM 56.1°F13.4°C 53.6°F12.0°C 91% 8.1 mph SW13.0 kmh SW 17.0 mph27.4 kmh 29.75 in1007.5 mb 0.05 in1.3 mm 0.02 in0.5 mm 2.40 in61.0 mm
04:12 PM 55.8°F13.2°C 53.4°F11.9°C 92% 4.9 mph SW7.9 kmh SW 16.1 mph25.9 kmh 29.75 in1007.5 mb 0.10 in2.5 mm 0.30 in7.6 mm 2.43 in61.7 mm
04:22 PM 55.9°F13.3°C 53.6°F12.0°C 92% 6.9 mph SSE11.1 kmh SSE 14.1 mph22.7 kmh 29.75 in1007.5 mb 0.13 in3.3 mm 0.18 in4.6 mm 2.46 in62.5 mm
04:32 PM 55.9°F13.3°C 53.6°F12.0°C 92% 8.1 mph SW13.0 kmh SW 20.0 mph32.2 kmh 29.75 in1007.5 mb 0.14 in3.6 mm 0.06 in1.5 mm 2.48 in63.0 mm
04:42 PM 55.9°F13.3°C 53.6°F12.0°C 92% 8.1 mph WSW13.0 kmh WSW 14.1 mph22.7 kmh 29.75 in1007.5 mb 0.14 in3.6 mm 0.00 in0.0 mm 2.49 in63.2 mm
04:52 PM 55.8°F13.2°C 53.8°F12.1°C 93% 6.9 mph S11.1 kmh S 15.0 mph24.1 kmh 29.75 in1007.5 mb 0.17 in4.3 mm 0.18 in4.6 mm 2.54 in64.5 mm
05:02 PM 55.6°F13.1°C 53.6°F12.0°C 93% 6.9 mph WNW11.1 kmh WNW 14.1 mph22.7 kmh 29.76 in1007.8 mb 0.25 in6.4 mm 0.10 in2.5 mm 2.63 in66.8 mm
05:12 PM 55.0°F12.8°C 52.5°F11.4°C 91% 8.9 mph SSW14.3 kmh SSW 20.0 mph32.2 kmh 29.76 in1007.8 mb 0.25 in6.4 mm 0.00 in0.0 mm 2.68 in68.1 mm
05:22 PM 54.9°F12.7°C 52.5°F11.4°C 92% 6.0 mph SW9.7 kmh SW 14.1 mph22.7 kmh 29.77 in1008.1 mb 0.24 in6.1 mm 0.00 in0.0 mm 2.70 in68.6 mm
05:32 PM 54.9°F12.7°C 52.5°F11.4°C 92% 6.0 mph S9.7 kmh S 17.0 mph27.4 kmh 29.76 in1007.8 mb 0.26 in6.6 mm 0.12 in3.0 mm 2.74 in69.6 mm
05:42 PM 54.7°F12.6°C 52.7°F11.5°C 93% 4.9 mph SW7.9 kmh SW 12.1 mph19.5 kmh 29.76 in1007.8 mb 0.30 in7.6 mm 0.24 in6.1 mm 2.79 in70.9 mm
05:52 PM 55.0°F12.8°C 53.4°F11.9°C 94% 4.9 mph SW7.9 kmh SW 13.0 mph20.9 kmh 29.76 in1007.8 mb 0.30 in7.6 mm 0.00 in0.0 mm 2.83 in71.9 mm
06:02 PM 55.4°F13.0°C 53.8°F12.1°C 94% 6.0 mph WSW9.7 kmh WSW 14.1 mph22.7 kmh 29.76 in1007.8 mb 0.21 in5.3 mm 0.00 in0.0 mm 2.84 in72.1 mm
06:12 PM 55.6°F13.1°C 54.0°F12.2°C 94% 8.1 mph S13.0 kmh S 18.0 mph29.0 kmh 29.76 in1007.8 mb 0.18 in4.6 mm 0.00 in0.0 mm 2.86 in72.6 mm
06:22 PM 55.6°F13.1°C 54.0°F12.2°C 94% 6.0 mph SSW9.7 kmh SSW 15.0 mph24.1 kmh 29.75 in1007.5 mb 0.17 in4.3 mm 0.00 in0.0 mm 2.88 in73.2 mm
06:32 PM 55.6°F13.1°C 54.0°F12.2°C 94% 8.1 mph SW13.0 kmh SW 21.0 mph33.8 kmh 29.75 in1007.5 mb 0.18 in4.6 mm 0.06 in1.5 mm 2.92 in74.2 mm
06:42 PM 55.6°F13.1°C 54.0°F12.2°C 94% 6.9 mph WSW11.1 kmh WSW 17.0 mph27.4 kmh 29.76 in1007.8 mb 0.15 in3.8 mm 0.00 in0.0 mm 2.94 in74.7 mm
06:52 PM 55.2°F12.9°C 53.6°F12.0°C 94% 6.0 mph WSW9.7 kmh WSW 15.0 mph24.1 kmh 29.76 in1007.8 mb 0.11 in2.8 mm 0.00 in0.0 mm 2.94 in74.7 mm
07:02 PM 55.2°F12.9°C 53.6°F12.0°C 94% 6.0 mph W9.7 kmh W 15.0 mph24.1 kmh 29.76 in1007.8 mb 0.10 in2.5 mm 0.00 in0.0 mm 2.94 in74.7 mm
07:12 PM 54.9°F12.7°C 52.9°F11.6°C 93% 6.0 mph WSW9.7 kmh WSW 13.0 mph20.9 kmh 29.76 in1007.8 mb 0.08 in2.0 mm 0.00 in0.0 mm 2.94 in74.7 mm
07:22 PM 54.9°F12.7°C 52.9°F11.6°C 93% 4.0 mph SW6.4 kmh SW 10.1 mph16.3 kmh 29.76 in1007.8 mb 0.07 in1.8 mm 0.00 in0.0 mm 2.94 in74.7 mm
07:32 PM 54.7°F12.6°C 52.7°F11.5°C 93% 4.0 mph SW6.4 kmh SW 8.9 mph14.3 kmh 29.77 in1008.1 mb 0.02 in0.5 mm 0.00 in0.0 mm 2.94 in74.7 mm
07:42 PM 54.7°F12.6°C 52.7°F11.5°C 93% 2.9 mph SW4.7 kmh SW 10.1 mph16.3 kmh 29.77 in1008.1 mb 0.00 in0.0 mm 0.00 in0.0 mm 2.94 in74.7 mm
07:52 PM 54.3°F12.4°C 52.3°F11.3°C 93% 0.9 mph WSW1.4 kmh WSW 6.0 mph9.7 kmh 29.77 in1008.1 mb 0.00 in0.0 mm 0.00 in0.0 mm 2.94 in74.7 mm
08:02 PM 54.1°F12.3°C 52.2°F11.2°C 93% 0.9 mph SSW1.4 kmh SSW 4.0 mph6.4 kmh 29.78 in1008.5 mb 0.00 in0.0 mm 0.00 in0.0 mm 2.94 in74.7 mm
08:12 PM 53.8°F12.1°C 51.8°F11.0°C 93% Calm Calm 2.9 mph4.7 kmh 29.78 in1008.5 mb 0.00 in0.0 mm 0.00 in0.0 mm 2.94 in74.7 mm
08:22 PM 53.8°F12.1°C 51.8°F11.0°C 93% 0.9 mph S1.4 kmh S 2.9 mph4.7 kmh 29.79 in1008.8 mb 0.00 in0.0 mm 0.00 in0.0 mm 2.94 in74.7 mm
08:32 PM 53.6°F12.0°C 51.6°F10.9°C 93% 2.0 mph S3.2 kmh S 2.9 mph4.7 kmh 29.78 in1008.5 mb 0.00 in0.0 mm 0.00 in0.0 mm 2.94 in74.7 mm
08:42 PM 53.4°F11.9°C 51.4°F10.8°C 93% 2.0 mph SSE3.2 kmh SSE 6.9 mph11.1 kmh 29.79 in1008.8 mb 0.00 in0.0 mm 0.00 in0.0 mm 2.94 in74.7 mm
08:52 PM 53.2°F11.8°C 51.6°F10.9°C 94% 2.0 mph SE3.2 kmh SE 4.0 mph6.4 kmh 29.79 in1008.8 mb 0.00 in0.0 mm 0.00 in0.0 mm 2.94 in74.7 mm
09:02 PM 53.1°F11.7°C 51.4°F10.8°C 94% 2.0 mph SSE3.2 kmh SSE 2.9 mph4.7 kmh 29.80 in1009.1 mb 0.00 in0.0 mm 0.00 in0.0 mm 2.94 in74.7 mm
09:12 PM 52.9°F11.6°C 51.3°F10.7°C 94% 2.0 mph SE3.2 kmh SE 2.9 mph4.7 kmh 29.80 in1009.1 mb 0.00 in0.0 mm 0.00 in0.0 mm 2.94 in74.7 mm
09:22 PM 52.9°F11.6°C 51.3°F10.7°C 94% 2.0 mph SSE3.2 kmh SSE 4.0 mph6.4 kmh 29.80 in1009.1 mb 0.00 in0.0 mm 0.00 in0.0 mm 2.94 in74.7 mm
09:32 PM 53.1°F11.7°C 51.4°F10.8°C 94% 2.0 mph SE3.2 kmh SE 4.9 mph7.9 kmh 29.81 in1009.5 mb 0.00 in0.0 mm 0.00 in0.0 mm 2.94 in74.7 mm
09:42 PM 53.2°F11.8°C 51.6°F10.9°C 94% 2.9 mph SE4.7 kmh SE 4.0 mph6.4 kmh 29.80 in1009.1 mb 0.00 in0.0 mm 0.00 in0.0 mm 2.94 in74.7 mm
09:52 PM 52.9°F11.6°C 51.3°F10.7°C 94% 2.0 mph SSE3.2 kmh SSE 2.9 mph4.7 kmh 29.81 in1009.5 mb 0.00 in0.0 mm 0.00 in0.0 mm 2.94 in74.7 mm
10:02 PM 52.9°F11.6°C 51.3°F10.7°C 94% 2.9 mph SE4.7 kmh SE 5.0 mph8.0 kmh 29.81 in1009.5 mb 0.00 in0.0 mm 0.00 in0.0 mm 2.94 in74.7 mm
10:12 PM 52.9°F11.6°C 51.3°F10.7°C 94% 2.0 mph SE3.2 kmh SE 4.0 mph6.4 kmh 29.82 in1009.8 mb 0.00 in0.0 mm 0.00 in0.0 mm 2.94 in74.7 mm
10:22 PM 52.7°F11.5°C 51.1°F10.6°C 94% 2.9 mph SSE4.7 kmh SSE 4.0 mph6.4 kmh 29.83 in1010.2 mb 0.00 in0.0 mm 0.00 in0.0 mm 2.94 in74.7 mm
10:32 PM 52.5°F11.4°C 50.9°F10.5°C 94% 2.0 mph SE3.2 kmh SE 4.0 mph6.4 kmh 29.83 in1010.2 mb 0.00 in0.0 mm 0.00 in0.0 mm 2.94 in74.7 mm
10:42 PM 52.9°F11.6°C 51.3°F10.7°C 94% 2.9 mph SE4.7 kmh SE 5.0 mph8.0 kmh 29.84 in1010.5 mb 0.00 in0.0 mm 0.00 in0.0 mm 2.94 in74.7 mm
10:52 PM 52.9°F11.6°C 51.3°F10.7°C 94% 2.9 mph SE4.7 kmh SE 4.0 mph6.4 kmh 29.84 in1010.5 mb 0.00 in0.0 mm 0.00 in0.0 mm 2.94 in74.7 mm
11:02 PM 53.2°F11.8°C 51.8°F11.0°C 95% 2.9 mph SE4.7 kmh SE 6.0 mph9.7 kmh 29.84 in1010.5 mb 0.00 in0.0 mm 0.00 in0.0 mm 2.94 in74.7 mm
11:12 PM 53.8°F12.1°C 52.3°F11.3°C 95% 2.9 mph SSW4.7 kmh SSW 6.9 mph11.1 kmh 29.84 in1010.5 mb 0.01 in0.3 mm 0.06 in1.5 mm 2.95 in74.9 mm
11:22 PM 54.7°F12.6°C 53.1°F11.7°C 94% 2.0 mph WSW3.2 kmh WSW 8.1 mph13.0 kmh 29.85 in1010.8 mb 0.02 in0.5 mm 0.06 in1.5 mm 2.96 in75.2 mm
11:32 PM 54.3°F12.4°C 52.7°F11.5°C 94% Calm Calm 2.0 mph3.2 kmh 29.85 in1010.8 mb 0.02 in0.5 mm 0.00 in0.0 mm 2.96 in75.2 mm
11:42 PM 54.1°F12.3°C 52.5°F11.4°C 94% 0.9 mph SE1.4 kmh SE 2.0 mph3.2 kmh 29.85 in1010.8 mb 0.02 in0.5 mm 0.00 in0.0 mm 2.96 in75.2 mm
11:52 PM 54.1°F12.3°C 52.7°F11.5°C 95% 0.9 mph SE1.4 kmh SE 2.0 mph3.2 kmh 29.85 in1010.8 mb 0.02 in0.5 mm 0.00 in0.0 mm 2.96 in75.2 mm